createdAt,value
2022-07-28T00:01:14.878Z,6.13
2022-07-28T00:03:47.807Z,6.60
2022-07-28T00:06:15.648Z,4.37
2022-07-28T00:08:43.496Z,8.73
2022-07-28T00:11:11.306Z,4.90
2022-07-28T00:13:39.151Z,5.00
2022-07-28T00:16:08.138Z,5.80
2022-07-28T00:18:37.426Z,4.93
2022-07-28T00:21:05.377Z,5.50
2022-07-28T00:23:39.565Z,5.30
2022-07-28T00:26:08.746Z,4.90
2022-07-28T00:28:37.016Z,4.33
2022-07-28T00:31:09.213Z,5.97
2022-07-28T00:33:40.018Z,4.20
2022-07-28T00:36:11.407Z,4.77
2022-07-28T00:38:44.022Z,5.47
2022-07-28T00:41:12.592Z,4.47
2022-07-28T00:43:41.981Z,14.33
2022-07-28T00:46:10.211Z,4.60
2022-07-28T00:48:40.836Z,6.40
2022-07-28T00:51:10.120Z,5.53
2022-07-28T00:53:38.988Z,6.17
2022-07-28T00:56:08.616Z,6.07
2022-07-28T00:58:37.425Z,7.23
2022-07-28T01:01:06.021Z,4.70
2022-07-28T01:03:35.281Z,7.57
2022-07-28T01:06:11.210Z,7.50
2022-07-28T01:08:51.904Z,4.73
2022-07-28T01:11:30.783Z,8.83
2022-07-28T01:14:08.706Z,5.60
2022-07-28T01:16:43.494Z,6.90
2022-07-28T01:19:20.529Z,12.73
2022-07-28T01:21:51.670Z,8.53
2022-07-28T01:24:25.465Z,6.47
2022-07-28T01:26:58.831Z,6.10
2022-07-28T01:29:44.214Z,8.83
2022-07-28T01:32:19.944Z,5.80
2022-07-28T01:34:53.250Z,6.00
2022-07-28T01:37:26.762Z,5.90
2022-07-28T01:39:58.215Z,6.50
2022-07-28T01:42:32.074Z,6.50
2022-07-28T01:45:01.759Z,9.03
2022-07-28T01:47:32.692Z,8.33
2022-07-28T01:50:05.078Z,6.83
2022-07-28T01:52:33.354Z,6.37
2022-07-28T01:55:02.589Z,6.53
2022-07-28T01:57:32.053Z,7.33
2022-07-28T02:00:02.147Z,8.93
2022-07-28T02:02:32.555Z,6.73
2022-07-28T02:05:01.905Z,7.50
2022-07-28T02:07:30.744Z,7.17
2022-07-28T02:10:01.074Z,7.50
2022-07-28T02:12:30.290Z,10.80
2022-07-28T02:14:59.458Z,7.60
2022-07-28T02:17:32.239Z,10.27
2022-07-28T02:20:02.025Z,6.57
2022-07-28T02:22:30.173Z,6.83
2022-07-28T02:24:58.653Z,8.40
2022-07-28T02:27:35.176Z,7.43
2022-07-28T02:30:09.357Z,7.63
2022-07-28T02:32:45.013Z,10.80
2022-07-28T02:35:18.337Z,9.93
2022-07-28T02:37:51.891Z,5.83
2022-07-28T02:40:22.428Z,7.93
2022-07-28T02:42:52.711Z,10.03
2022-07-28T02:45:25.320Z,8.80
2022-07-28T02:48:01.267Z,8.07
2022-07-28T02:50:30.597Z,7.53
2022-07-28T02:53:00.792Z,10.53
2022-07-28T02:55:43.914Z,8.07
2022-07-28T02:58:13.541Z,7.67
2022-07-28T03:00:42.368Z,7.80
2022-07-28T03:03:12.505Z,6.27
2022-07-28T03:05:41.432Z,8.40
2022-07-28T03:08:09.789Z,6.93
2022-07-28T03:10:37.698Z,11.33
2022-07-28T03:13:07.807Z,8.90
2022-07-28T03:15:36.410Z,8.13
2022-07-28T03:18:06.019Z,8.67
2022-07-28T03:20:36.014Z,9.33
2022-07-28T03:23:04.206Z,7.47
2022-07-28T03:25:40.229Z,8.20
2022-07-28T03:28:10.968Z,8.60
2022-07-28T03:30:43.929Z,9.20
2022-07-28T03:33:12.897Z,13.43
2022-07-28T03:35:48.029Z,8.63
2022-07-28T03:38:20.481Z,9.37
2022-07-28T03:40:50.070Z,11.73
2022-07-28T03:43:22.442Z,9.67
2022-07-28T03:45:51.246Z,11.00
2022-07-28T03:48:21.586Z,12.33
2022-07-28T03:50:50.764Z,7.73
2022-07-28T03:53:23.768Z,9.13
2022-07-28T03:55:52.158Z,9.23
2022-07-28T03:58:20.287Z,9.80
2022-07-28T04:00:49.267Z,10.17
2022-07-28T04:03:35.256Z,11.63
2022-07-28T04:06:07.092Z,10.60
2022-07-28T04:08:35.068Z,10.47
2022-07-28T04:11:02.951Z,10.53
2022-07-28T04:13:32.150Z,13.93
2022-07-28T04:16:00.452Z,10.50
2022-07-28T04:18:28.409Z,11.50
2022-07-28T04:20:56.727Z,11.50
2022-07-28T04:23:26.273Z,10.80
2022-07-28T04:25:54.201Z,14.53
2022-07-28T04:28:22.060Z,13.03
2022-07-28T04:30:49.985Z,11.07
2022-07-28T04:33:19.238Z,10.40
2022-07-28T04:35:47.866Z,10.40
2022-07-28T04:38:17.800Z,11.33
2022-07-28T04:40:47.154Z,10.30
2022-07-28T04:43:15.317Z,10.10
2022-07-28T04:45:53.322Z,8.67
2022-07-28T04:48:22.968Z,9.90
2022-07-28T04:50:52.368Z,9.50
2022-07-28T04:53:20.417Z,12.83
2022-07-28T04:55:51.466Z,12.87
2022-07-28T04:58:20.518Z,10.33
2022-07-28T05:00:50.915Z,12.70
2022-07-28T05:03:19.429Z,10.53
2022-07-28T05:05:52.958Z,10.47
2022-07-28T05:08:26.074Z,11.90
2022-07-28T05:10:56.731Z,17.00
2022-07-28T05:13:28.901Z,8.63
2022-07-28T05:16:01.285Z,13.07
2022-07-28T05:18:29.440Z,10.20
2022-07-28T05:20:57.700Z,8.17
2022-07-28T05:23:25.801Z,9.67
2022-07-28T05:25:55.151Z,15.87
2022-07-28T05:28:23.629Z,12.80
2022-07-28T05:30:51.625Z,9.50
2022-07-28T05:33:19.538Z,10.30
2022-07-28T05:35:53.532Z,12.80
2022-07-28T05:38:21.756Z,11.70
2022-07-28T05:40:49.829Z,13.03
2022-07-28T05:43:19.118Z,9.03
2022-07-28T05:45:47.522Z,9.90
2022-07-28T05:48:18.159Z,10.17
2022-07-28T05:50:46.188Z,12.17
2022-07-28T05:53:14.042Z,11.77
2022-07-28T05:56:00.490Z,11.40
2022-07-28T05:58:31.532Z,8.37
2022-07-28T06:01:00.993Z,12.50
2022-07-28T06:03:30.450Z,10.67
2022-07-28T06:06:00.741Z,9.63
2022-07-28T06:08:45.358Z,10.00
2022-07-28T06:11:21.694Z,8.77
2022-07-28T06:13:53.011Z,9.30
2022-07-28T06:16:22.729Z,10.80
2022-07-28T06:18:51.683Z,10.33
2022-07-28T06:21:19.671Z,9.73
2022-07-28T06:23:47.519Z,9.50
2022-07-28T06:26:15.384Z,8.63
2022-07-28T06:28:43.214Z,13.60
2022-07-28T06:31:12.433Z,7.73
2022-07-28T06:33:40.338Z,10.27
2022-07-28T06:36:08.193Z,9.50
2022-07-28T06:38:36.003Z,16.60
2022-07-28T06:41:03.849Z,7.73
2022-07-28T06:43:36.751Z,8.00
2022-07-28T06:46:06.527Z,10.60
2022-07-28T06:48:37.410Z,8.30
2022-07-28T06:51:05.679Z,9.40
2022-07-28T06:53:34.538Z,7.00
2022-07-28T06:56:03.875Z,9.07
2022-07-28T06:58:32.284Z,8.97
2022-07-28T07:01:00.277Z,7.70
2022-07-28T07:03:28.242Z,10.07
2022-07-28T07:05:57.572Z,9.23
2022-07-28T07:08:25.470Z,9.63
2022-07-28T07:10:54.136Z,10.03
2022-07-28T07:13:21.910Z,8.10
2022-07-28T07:15:50.353Z,12.40
2022-07-28T07:18:18.240Z,13.23
2022-07-28T07:20:46.040Z,10.73
2022-07-28T07:23:15.238Z,7.80
2022-07-28T07:25:43.082Z,6.83
2022-07-28T07:28:10.860Z,8.57
2022-07-28T07:30:38.780Z,6.40
2022-07-28T07:33:08.031Z,8.47
2022-07-28T07:35:38.406Z,6.87
2022-07-28T07:38:06.367Z,10.20
2022-07-28T07:40:35.859Z,8.80
2022-07-28T07:43:03.762Z,7.60
2022-07-28T07:45:31.669Z,7.40
2022-07-28T07:48:01.725Z,7.33
2022-07-28T07:50:30.172Z,6.87
2022-07-28T07:52:58.477Z,7.83
2022-07-28T07:55:26.331Z,13.00
2022-07-28T07:57:55.553Z,8.70
2022-07-28T08:00:28.745Z,8.57
2022-07-28T08:02:57.455Z,7.30
2022-07-28T08:05:35.478Z,8.63
2022-07-28T08:08:05.710Z,7.57
2022-07-28T08:10:33.970Z,6.67
2022-07-28T08:13:04.538Z,10.07
2022-07-28T08:15:32.377Z,7.10
2022-07-28T08:18:00.293Z,8.10
2022-07-28T08:20:28.293Z,8.37
2022-07-28T08:22:57.771Z,10.63
2022-07-28T08:25:26.099Z,10.27
2022-07-28T08:27:54.021Z,7.00
2022-07-28T08:30:28.855Z,6.67
2022-07-28T08:33:00.194Z,7.80
2022-07-28T08:35:35.864Z,6.87
2022-07-28T08:38:05.448Z,7.90
2022-07-28T08:40:33.516Z,7.13
2022-07-28T08:43:08.256Z,11.40
2022-07-28T08:45:40.210Z,7.00
2022-07-28T08:48:12.657Z,7.60
2022-07-28T08:50:40.654Z,9.80
2022-07-28T08:53:09.004Z,7.30
2022-07-28T08:55:37.768Z,8.13
2022-07-28T08:58:05.626Z,6.10
2022-07-28T09:00:33.717Z,8.50
2022-07-28T09:03:04.467Z,9.90
2022-07-28T09:05:33.108Z,10.20
2022-07-28T09:08:01.119Z,8.83
2022-07-28T09:10:29.243Z,7.30
2022-07-28T09:12:57.067Z,6.60
2022-07-28T09:15:24.908Z,11.00
2022-07-28T09:17:52.981Z,5.73
2022-07-28T09:20:22.158Z,7.00
2022-07-28T09:22:58.157Z,5.90
2022-07-28T09:25:26.423Z,7.10
2022-07-28T09:27:54.948Z,6.73
2022-07-28T09:30:30.832Z,7.73
2022-07-28T09:33:42.127Z,8.20
2022-07-28T09:36:16.720Z,7.23
2022-07-28T09:38:45.636Z,8.27
2022-07-28T09:41:13.928Z,8.80
2022-07-28T09:43:43.338Z,6.10
2022-07-28T09:46:13.321Z,9.40
2022-07-28T09:48:55.805Z,7.53
2022-07-28T09:51:26.933Z,5.27
2022-07-28T09:54:06.496Z,6.60
2022-07-28T09:56:34.693Z,6.77
2022-07-28T09:59:03.507Z,6.93
2022-07-28T10:01:36.887Z,8.83
2022-07-28T10:04:05.562Z,6.00
2022-07-28T10:06:37.684Z,4.80
2022-07-28T10:09:07.753Z,5.20
2022-07-28T10:11:41.354Z,6.50
2022-07-28T10:14:09.621Z,9.03
2022-07-28T10:16:44.164Z,5.00
2022-07-28T10:19:11.997Z,7.70
2022-07-28T10:21:45.075Z,6.13
2022-07-28T10:24:18.411Z,5.00
2022-07-28T10:26:48.099Z,5.87
2022-07-28T10:29:18.860Z,6.07
2022-07-28T10:31:51.972Z,6.93
2022-07-28T10:34:24.875Z,13.13
2022-07-28T10:36:56.787Z,5.20
2022-07-28T10:39:29.753Z,5.47
2022-07-28T10:41:58.299Z,9.93
2022-07-28T10:44:27.015Z,5.00
2022-07-28T10:46:55.628Z,6.10
2022-07-28T10:49:27.399Z,4.23
2022-07-28T10:52:06.453Z,5.73
2022-07-28T10:54:46.213Z,5.50
2022-07-28T10:57:16.608Z,4.40
2022-07-28T11:00:13.288Z,3.97
2022-07-28T11:02:53.313Z,6.53
2022-07-28T11:05:36.326Z,6.07
2022-07-28T11:08:07.808Z,5.37
2022-07-28T11:10:46.802Z,5.70
2022-07-28T11:13:33.017Z,6.30
2022-07-28T11:16:20.521Z,6.47
2022-07-28T11:19:07.764Z,7.73
2022-07-28T11:22:28.071Z,7.23
2022-07-28T11:25:21.083Z,5.57
2022-07-28T11:28:06.533Z,5.40
2022-07-28T11:30:54.918Z,5.90
2022-07-28T11:33:24.664Z,5.53
2022-07-28T11:35:59.951Z,4.23
2022-07-28T11:38:28.392Z,3.80
2022-07-28T11:40:57.998Z,6.43
2022-07-28T11:43:39.085Z,5.03
2022-07-28T11:46:23.995Z,4.80
2022-07-28T11:49:16.705Z,5.43
2022-07-28T11:52:16.720Z,4.50
2022-07-28T11:54:50.283Z,4.93
2022-07-28T11:57:21.245Z,6.13
2022-07-28T11:59:51.276Z,4.10
2022-07-28T12:02:21.573Z,4.23
2022-07-28T12:05:07.564Z,7.20
2022-07-28T12:07:44.436Z,4.20
2022-07-28T12:10:51.908Z,4.40
2022-07-28T12:13:16.462Z,4.10
2022-07-28T12:15:51.780Z,6.40
2022-07-28T12:18:19.858Z,4.67
2022-07-28T12:20:49.840Z,5.70
2022-07-28T12:23:17.688Z,6.20
2022-07-28T12:25:47.060Z,4.07
2022-07-28T12:28:22.501Z,4.47
2022-07-28T12:30:52.057Z,4.47
2022-07-28T12:33:24.899Z,4.73
2022-07-28T12:35:59.016Z,4.20
2022-07-28T12:38:28.502Z,7.27
2022-07-28T12:40:56.438Z,5.07
2022-07-28T12:43:27.943Z,5.97
2022-07-28T12:45:56.924Z,4.27
2022-07-28T12:48:25.086Z,4.87
2022-07-28T12:50:52.935Z,4.10
2022-07-28T12:53:22.669Z,7.80
2022-07-28T12:56:00.230Z,5.10
2022-07-28T12:58:29.599Z,5.83
2022-07-28T13:00:57.616Z,4.53
2022-07-28T13:03:26.604Z,5.13
2022-07-28T13:06:05.144Z,7.23
2022-07-28T13:08:45.015Z,4.53
2022-07-28T13:11:43.235Z,4.43
2022-07-28T13:14:05.237Z,4.20
2022-07-28T13:16:34.217Z,5.73
2022-07-28T13:19:04.493Z,5.73
2022-07-28T13:21:41.109Z,4.93
2022-07-28T13:24:27.114Z,8.57
2022-07-28T13:26:55.000Z,5.30
2022-07-28T13:29:24.238Z,4.80
2022-07-28T13:31:54.432Z,7.50
2022-07-28T13:34:22.634Z,3.40
2022-07-28T13:36:50.523Z,7.27
2022-07-28T13:39:18.368Z,5.37
2022-07-28T13:41:57.297Z,7.53
2022-07-28T13:44:28.437Z,4.70
2022-07-28T13:46:58.978Z,3.70
2022-07-28T13:49:28.232Z,5.83
2022-07-28T13:51:56.325Z,5.93
2022-07-28T13:54:25.486Z,8.23
2022-07-28T13:57:12.079Z,5.57
2022-07-28T13:59:42.028Z,4.67
2022-07-28T14:02:15.163Z,3.90
2022-07-28T14:04:46.182Z,6.67
2022-07-28T14:07:20.764Z,4.43
2022-07-28T14:09:52.262Z,4.53
2022-07-28T14:12:20.485Z,6.13
2022-07-28T14:14:49.833Z,4.73
2022-07-28T14:20:11.775Z,5.60
2022-07-28T14:22:39.821Z,5.40
2022-07-28T14:25:08.546Z,4.27
2022-07-28T14:27:36.450Z,8.97
2022-07-28T14:30:07.277Z,5.10
2022-07-28T14:32:35.874Z,3.90
2022-07-28T14:35:03.767Z,3.80
2022-07-28T14:37:55.095Z,5.20
2022-07-28T14:40:19.602Z,6.60
2022-07-28T14:42:47.415Z,6.00
2022-07-28T14:45:16.691Z,4.90
2022-07-28T14:47:45.638Z,5.90
2022-07-28T14:50:14.321Z,6.97
2022-07-28T14:52:45.056Z,4.47
2022-07-28T14:55:18.811Z,5.73
2022-07-28T14:57:54.022Z,4.30
2022-07-28T15:00:28.116Z,11.00
2022-07-28T15:02:56.565Z,4.47
2022-07-28T15:05:25.378Z,3.77
2022-07-28T15:07:53.166Z,6.43
2022-07-28T15:10:21.604Z,3.87
2022-07-28T15:12:50.600Z,6.50
2022-07-28T15:15:18.494Z,6.53
2022-07-28T15:17:48.159Z,4.17
2022-07-28T15:20:16.497Z,3.80
2022-07-28T15:22:44.358Z,5.00
2022-07-28T15:25:12.239Z,6.43
2022-07-28T15:27:45.794Z,7.37
2022-07-28T15:30:14.934Z,4.70
2022-07-28T15:32:55.924Z,5.90
2022-07-28T15:35:25.935Z,6.80
2022-07-28T15:37:53.891Z,4.00
2022-07-28T15:40:22.125Z,8.40
2022-07-28T15:42:49.976Z,5.20
2022-07-28T15:45:18.053Z,6.50
2022-07-28T15:47:45.934Z,4.73
2022-07-28T15:50:13.950Z,4.27
2022-07-28T15:52:43.136Z,3.83
2022-07-28T15:55:11.290Z,5.20
2022-07-28T15:57:39.595Z,7.37
2022-07-28T16:00:09.937Z,5.47
2022-07-28T16:02:37.789Z,4.87
2022-07-28T16:05:06.802Z,6.80
2022-07-28T16:07:35.648Z,7.60
2022-07-28T16:10:05.439Z,5.83
2022-07-28T16:12:33.593Z,5.37
2022-07-28T16:15:01.462Z,4.17
2022-07-28T16:17:29.297Z,4.10
2022-07-28T16:19:58.636Z,4.67
2022-07-28T16:22:30.369Z,5.30
2022-07-28T16:24:58.292Z,4.00
2022-07-28T16:27:27.441Z,6.40
2022-07-28T16:29:55.284Z,3.43
2022-07-28T16:32:24.538Z,5.93
2022-07-28T16:34:53.801Z,5.00
2022-07-28T16:37:21.609Z,4.73
2022-07-28T16:39:49.658Z,5.60
2022-07-28T16:42:17.839Z,4.40
2022-07-28T16:44:47.250Z,6.63
2022-07-28T16:47:15.358Z,4.10
2022-07-28T16:49:45.992Z,3.27
2022-07-28T16:52:14.693Z,3.97
2022-07-28T16:54:42.780Z,4.10
2022-07-28T16:57:10.734Z,3.87
2022-07-28T16:59:47.690Z,4.60
2022-07-28T17:02:18.576Z,7.10
2022-07-28T17:04:46.570Z,5.40
2022-07-28T17:07:14.433Z,5.13
2022-07-28T17:09:42.356Z,9.27
2022-07-28T17:12:10.417Z,3.83
2022-07-28T17:14:38.352Z,6.50
2022-07-28T17:17:06.285Z,3.70
2022-07-28T17:19:35.570Z,5.13
2022-07-28T17:22:06.887Z,6.30
2022-07-28T17:24:35.020Z,5.00
2022-07-28T17:27:36.756Z,9.23
2022-07-28T17:29:50.738Z,7.90
2022-07-28T17:32:18.686Z,4.90
2022-07-28T17:34:47.928Z,4.30
2022-07-28T17:37:15.838Z,5.30
2022-07-28T17:39:43.783Z,4.37
2022-07-28T17:42:11.621Z,4.70
2022-07-28T17:44:39.495Z,5.93
2022-07-28T17:47:07.498Z,4.50
2022-07-28T17:49:37.648Z,6.30
2022-07-28T17:52:09.083Z,7.60
2022-07-28T17:54:50.844Z,4.10
2022-07-28T17:57:18.955Z,4.90
2022-07-28T17:59:51.619Z,6.30
2022-07-28T18:02:20.010Z,3.37
2022-07-28T18:04:47.977Z,4.63
2022-07-28T18:07:17.125Z,4.87
2022-07-28T18:09:44.958Z,4.20
2022-07-28T18:12:12.801Z,6.50
2022-07-28T18:14:40.699Z,3.60
2022-07-28T18:17:08.579Z,4.17
2022-07-28T18:19:36.519Z,5.60
2022-07-28T18:22:05.241Z,3.33
2022-07-28T18:24:34.465Z,4.37
2022-07-28T18:27:02.290Z,4.23
2022-07-28T18:29:38.213Z,4.43
2022-07-28T18:32:07.796Z,3.93
2022-07-28T18:34:38.016Z,6.30
2022-07-28T18:37:06.822Z,10.03
2022-07-28T18:39:36.074Z,3.43
2022-07-28T18:42:03.971Z,3.27
2022-07-28T18:44:31.840Z,5.03
2022-07-28T18:47:01.260Z,3.90
2022-07-28T18:49:29.120Z,4.33
2022-07-28T18:52:05.906Z,14.03
2022-07-28T18:54:35.100Z,5.80
2022-07-28T18:57:02.945Z,4.57
2022-07-28T18:59:30.766Z,4.53
2022-07-28T19:01:58.732Z,4.63
2022-07-28T19:04:26.605Z,8.10
2022-07-28T19:06:54.478Z,10.07
2022-07-28T19:09:22.351Z,4.43
2022-07-28T19:11:51.902Z,8.33
2022-07-28T19:14:20.073Z,7.33
2022-07-28T19:16:48.195Z,4.70
2022-07-28T19:19:16.125Z,4.73
2022-07-28T19:21:44.102Z,3.73
2022-07-28T19:24:12.970Z,4.13
2022-07-28T19:26:42.073Z,5.80
2022-07-28T19:29:11.561Z,5.17
2022-07-28T19:31:39.997Z,3.83
2022-07-28T19:34:08.033Z,8.30
2022-07-28T19:36:37.732Z,4.03
2022-07-28T19:39:05.731Z,4.23
2022-07-28T19:41:33.621Z,4.20
2022-07-28T19:44:01.519Z,5.83
2022-07-28T19:46:30.851Z,4.03
2022-07-28T19:48:58.886Z,5.13
2022-07-28T19:51:27.022Z,5.10
2022-07-28T19:53:57.759Z,6.20
2022-07-28T19:56:30.535Z,6.00
2022-07-28T19:58:59.674Z,6.80
2022-07-28T20:01:27.614Z,8.00
2022-07-28T20:04:03.385Z,6.30
2022-07-28T20:06:41.160Z,9.37
2022-07-28T20:09:09.136Z,5.67
2022-07-28T20:11:36.958Z,5.00
2022-07-28T20:14:04.805Z,5.63
2022-07-28T20:16:32.782Z,6.40
2022-07-28T20:19:03.188Z,5.20
2022-07-28T20:21:38.494Z,10.53
2022-07-28T20:24:07.919Z,4.73
2022-07-28T20:26:35.796Z,4.07
2022-07-28T20:29:05.782Z,5.30
2022-07-28T20:31:34.278Z,8.57
2022-07-28T20:34:06.495Z,8.73
2022-07-28T20:36:34.857Z,3.80
2022-07-28T20:39:15.729Z,4.87
2022-07-28T20:41:50.482Z,4.70
2022-07-28T20:44:28.791Z,5.20
2022-07-28T20:46:58.465Z,6.97
2022-07-28T20:49:28.185Z,9.13
2022-07-28T20:51:56.286Z,7.87
2022-07-28T20:54:24.118Z,7.40
2022-07-28T20:56:52.140Z,4.00
2022-07-28T20:59:19.923Z,5.20
2022-07-28T21:01:48.159Z,9.80
2022-07-28T21:04:16.495Z,4.83
2022-07-28T21:06:50.839Z,7.30
2022-07-28T21:09:20.076Z,4.80
2022-07-28T21:11:47.924Z,5.13
2022-07-28T21:14:16.279Z,8.30
2022-07-28T21:16:44.347Z,5.43
2022-07-28T21:19:12.258Z,4.87
2022-07-28T21:21:40.094Z,4.43
2022-07-28T21:24:09.951Z,6.73
2022-07-28T21:26:37.839Z,5.17
2022-07-28T21:32:03.589Z,4.43
2022-07-28T21:34:32.205Z,4.50
2022-07-28T21:37:02.616Z,3.33
2022-07-28T21:39:32.586Z,3.20
2022-07-28T21:42:01.047Z,6.00
2022-07-28T21:44:28.876Z,4.10
2022-07-28T21:46:56.700Z,4.07
2022-07-28T21:49:26.219Z,4.60
2022-07-28T21:51:54.086Z,3.53
2022-07-28T21:54:21.881Z,8.90
2022-07-28T21:56:51.136Z,4.50
2022-07-28T21:59:18.980Z,3.10
2022-07-28T22:01:46.896Z,4.73
2022-07-28T22:04:14.992Z,4.23
2022-07-28T22:06:45.984Z,4.20
2022-07-28T22:09:14.905Z,3.70
2022-07-28T22:11:43.025Z,3.27
2022-07-28T22:14:12.428Z,4.83
2022-07-28T22:16:40.444Z,3.40
2022-07-28T22:19:11.676Z,5.50
2022-07-28T22:21:39.675Z,3.10
2022-07-28T22:24:08.556Z,2.97
2022-07-28T22:26:36.418Z,4.63
2022-07-28T22:29:04.253Z,3.30
2022-07-28T22:31:33.483Z,2.70
2022-07-28T22:34:01.505Z,3.73
2022-07-28T22:36:29.364Z,3.77
2022-07-28T22:38:57.167Z,3.10
2022-07-28T22:41:25.179Z,3.23
2022-07-28T22:43:54.297Z,2.60
2022-07-28T22:46:22.176Z,2.93
2022-07-28T22:48:51.450Z,4.20
2022-07-28T22:51:19.433Z,3.00
2022-07-28T22:53:47.379Z,2.63
2022-07-28T22:56:15.257Z,3.30
2022-07-28T23:01:18.704Z,3.47
2022-07-28T23:03:47.442Z,3.17
2022-07-28T23:06:16.786Z,3.47
2022-07-28T23:08:44.683Z,5.07
2022-07-28T23:11:12.506Z,2.70
2022-07-28T23:13:40.798Z,3.70
2022-07-28T23:16:09.291Z,4.73
2022-07-28T23:18:39.845Z,5.73
2022-07-28T23:21:07.725Z,3.20
2022-07-28T23:23:37.229Z,2.70
2022-07-28T23:26:05.547Z,2.67
2022-07-28T23:28:33.414Z,4.40
2022-07-28T23:31:01.673Z,3.00
2022-07-28T23:33:55.773Z,3.10
2022-07-28T23:36:26.654Z,2.90
2022-07-28T23:38:58.307Z,4.97
2022-07-28T23:41:27.541Z,3.53
2022-07-28T23:43:55.592Z,2.70
2022-07-28T23:46:23.622Z,3.37
2022-07-28T23:48:51.641Z,3.40
2022-07-28T23:51:21.025Z,4.03
2022-07-28T23:53:52.975Z,4.40
2022-07-28T23:56:25.173Z,3.47
2022-07-28T23:58:55.943Z,2.80
